createdAt,value
2022-09-06T00:02:18.064Z,9.20
2022-09-06T00:04:46.097Z,9.20
2022-09-06T00:07:14.123Z,9.20
2022-09-06T00:09:42.138Z,9.10
2022-09-06T00:12:11.799Z,9.20
2022-09-06T00:14:39.847Z,9.20
2022-09-06T00:17:07.947Z,9.20
2022-09-06T00:19:36.168Z,9.20
2022-09-06T00:22:04.188Z,9.20
2022-09-06T00:24:33.819Z,9.30
2022-09-06T00:27:04.818Z,9.30
2022-09-06T00:29:34.256Z,9.30
2022-09-06T00:32:02.303Z,9.30
2022-09-06T00:34:30.551Z,9.30
2022-09-06T00:36:58.586Z,9.30
2022-09-06T00:39:26.873Z,9.30
2022-09-06T00:41:54.976Z,9.30
2022-09-06T00:44:23.186Z,9.30
2022-09-06T00:46:54.006Z,9.30
2022-09-06T00:49:24.474Z,9.40
2022-09-06T00:51:53.829Z,9.40
2022-09-06T00:54:21.921Z,9.40
2022-09-06T00:56:50.135Z,9.30
2022-09-06T00:59:19.919Z,9.30
2022-09-06T01:01:48.050Z,9.30
2022-09-06T01:04:17.655Z,9.30
2022-09-06T01:06:50.591Z,9.20
2022-09-06T01:09:25.239Z,9.20
2022-09-06T01:11:59.394Z,9.30
2022-09-06T01:14:32.989Z,9.20
2022-09-06T01:17:04.351Z,9.20
2022-09-06T01:19:40.777Z,9.20
2022-09-06T01:22:15.612Z,9.10
2022-09-06T01:24:52.581Z,9.10
2022-09-06T01:27:35.734Z,9.10
2022-09-06T01:30:07.150Z,9.10
2022-09-06T01:32:39.443Z,9.00
2022-09-06T01:35:12.817Z,9.10
2022-09-06T01:37:40.891Z,9.10
2022-09-06T01:40:09.625Z,8.90
2022-09-06T01:42:38.702Z,9.00
2022-09-06T01:45:09.692Z,9.00
2022-09-06T01:47:40.800Z,9.00
2022-09-06T01:50:24.314Z,9.00
2022-09-06T01:52:57.761Z,8.90
2022-09-06T01:55:29.050Z,8.90
2022-09-06T01:58:09.134Z,8.90
2022-09-06T02:00:41.235Z,8.90
2022-09-06T02:03:11.579Z,8.90
2022-09-06T02:05:41.647Z,8.90
2022-09-06T02:08:10.994Z,8.90
2022-09-06T02:10:42.269Z,8.90
2022-09-06T02:13:11.433Z,8.90
2022-09-06T02:15:44.020Z,8.80
2022-09-06T02:18:13.538Z,8.80
2022-09-06T02:20:42.851Z,8.80
2022-09-06T02:23:11.374Z,8.80
2022-09-06T02:25:40.353Z,8.70
2022-09-06T02:28:09.399Z,8.70
2022-09-06T02:30:39.632Z,8.70
2022-09-06T02:33:11.253Z,8.70
2022-09-06T02:35:44.117Z,8.60
2022-09-06T02:38:15.224Z,8.60
2022-09-06T02:40:44.207Z,8.70
2022-09-06T02:43:12.474Z,8.80
2022-09-06T02:45:40.610Z,8.70
2022-09-06T02:48:10.035Z,8.70
2022-09-06T02:50:38.212Z,8.70
2022-09-06T02:53:07.317Z,8.80
2022-09-06T02:55:35.407Z,8.70
2022-09-06T02:58:03.730Z,8.60
2022-09-06T03:00:32.158Z,8.60
2022-09-06T03:03:03.443Z,8.70
2022-09-06T03:05:33.168Z,8.70
2022-09-06T03:08:01.380Z,8.70
2022-09-06T03:10:29.397Z,8.70
2022-09-06T03:12:57.445Z,8.70
2022-09-06T03:15:25.514Z,8.60
2022-09-06T03:17:53.548Z,8.50
2022-09-06T03:20:21.627Z,8.60
2022-09-06T03:22:51.142Z,8.60
2022-09-06T03:25:19.367Z,8.60
2022-09-06T03:27:47.398Z,8.60
2022-09-06T03:30:15.439Z,8.50
2022-09-06T03:32:43.463Z,8.50
2022-09-06T03:35:11.658Z,8.50
2022-09-06T03:37:39.720Z,8.50
2022-09-06T03:40:10.166Z,8.50
2022-09-06T03:42:38.508Z,8.50
2022-09-06T03:45:07.665Z,8.40
2022-09-06T03:47:35.890Z,8.50
2022-09-06T03:50:03.943Z,8.50
2022-09-06T03:52:32.202Z,8.40
2022-09-06T03:55:00.244Z,8.50
2022-09-06T03:57:29.707Z,8.40
2022-09-06T03:59:57.754Z,8.40
2022-09-06T04:02:26.074Z,8.40
2022-09-06T04:04:55.655Z,8.50
2022-09-06T04:07:24.165Z,8.40
2022-09-06T04:09:52.319Z,8.40
2022-09-06T04:12:20.357Z,8.40
2022-09-06T04:14:50.012Z,8.40
2022-09-06T04:17:20.991Z,8.50
2022-09-06T04:19:49.025Z,8.50
2022-09-06T04:22:17.271Z,8.50
2022-09-06T04:24:45.443Z,8.50
2022-09-06T04:27:13.523Z,8.50
2022-09-06T04:29:41.544Z,8.50
2022-09-06T04:32:11.177Z,8.50
2022-09-06T04:34:39.408Z,8.50
2022-09-06T04:37:07.693Z,8.60
2022-09-06T04:39:35.752Z,8.50
2022-09-06T04:42:06.649Z,8.50
2022-09-06T04:44:34.651Z,8.60
2022-09-06T04:47:09.457Z,8.60
2022-09-06T04:49:39.679Z,8.60
2022-09-06T04:52:08.047Z,8.60
2022-09-06T04:54:36.310Z,8.70
2022-09-06T04:57:04.990Z,8.70
2022-09-06T04:59:33.353Z,8.60
2022-09-06T05:02:01.586Z,8.60
2022-09-06T05:04:29.894Z,8.70
2022-09-06T05:07:03.471Z,8.70
2022-09-06T05:09:31.715Z,8.70
2022-09-06T05:12:00.209Z,8.70
2022-09-06T05:14:28.724Z,8.80
2022-09-06T05:16:59.460Z,8.80
2022-09-06T05:19:27.472Z,8.80
2022-09-06T05:21:55.583Z,8.80
2022-09-06T05:24:25.164Z,8.80
2022-09-06T05:26:53.172Z,8.90
2022-09-06T05:29:22.327Z,8.90
2022-09-06T05:31:52.164Z,8.90
2022-09-06T05:34:20.317Z,9.00
2022-09-06T05:36:48.708Z,9.00
2022-09-06T05:39:19.219Z,9.00
2022-09-06T05:41:48.767Z,9.10
2022-09-06T05:44:16.994Z,9.10
2022-09-06T05:46:45.748Z,9.20
2022-09-06T05:49:14.341Z,9.30
2022-09-06T05:51:42.558Z,9.40
2022-09-06T05:54:11.969Z,9.50
2022-09-06T05:56:40.189Z,9.60
2022-09-06T05:59:09.655Z,9.80
2022-09-06T06:01:37.801Z,10.00
2022-09-06T06:04:08.198Z,10.10
2022-09-06T06:06:36.197Z,10.30
2022-09-06T06:09:04.426Z,10.40
2022-09-06T06:11:35.785Z,10.50
2022-09-06T06:14:04.432Z,10.60
2022-09-06T06:16:34.008Z,10.80
2022-09-06T06:19:02.201Z,10.90
2022-09-06T06:21:31.573Z,11.00
2022-09-06T06:24:01.014Z,11.20
2022-09-06T06:26:30.028Z,11.40
2022-09-06T06:29:01.979Z,11.60
2022-09-06T06:31:35.357Z,11.70
2022-09-06T06:34:07.587Z,11.80
2022-09-06T06:36:36.235Z,11.90
2022-09-06T06:39:05.689Z,12.00
2022-09-06T06:41:36.914Z,12.00
2022-09-06T06:44:06.054Z,12.10
2022-09-06T06:46:35.029Z,12.20
2022-09-06T06:49:04.895Z,12.40
2022-09-06T06:51:36.137Z,12.40
2022-09-06T06:54:04.501Z,12.40
2022-09-06T06:56:35.819Z,12.60
2022-09-06T06:59:08.648Z,12.80
2022-09-06T07:01:37.230Z,12.80
2022-09-06T07:04:07.283Z,12.80
2022-09-06T07:12:25.325Z,13.00
2022-09-06T07:14:53.974Z,13.00
2022-09-06T07:17:22.051Z,13.00
2022-09-06T07:22:42.831Z,13.10
2022-09-06T07:25:13.372Z,13.20
2022-09-06T07:30:16.923Z,13.40
2022-09-06T07:32:47.933Z,13.50
2022-09-06T07:35:17.490Z,14.40
2022-09-06T07:37:52.864Z,13.80
2022-09-06T07:40:20.891Z,13.80
2022-09-06T07:42:49.286Z,13.80
2022-09-06T07:45:17.369Z,14.00
2022-09-06T07:48:00.880Z,14.20
2022-09-06T07:50:48.835Z,14.20
2022-09-06T07:53:24.813Z,14.30
2022-09-06T07:55:58.428Z,14.40
2022-09-06T07:58:26.502Z,14.50
2022-09-06T08:00:54.797Z,14.50
2022-09-06T08:03:23.007Z,14.70
2022-09-06T08:11:28.103Z,14.80
2022-09-06T08:13:56.804Z,14.90
2022-09-06T08:16:25.654Z,15.00
2022-09-06T08:18:54.330Z,15.10
2022-09-06T08:21:24.703Z,15.20
2022-09-06T08:23:56.444Z,15.40
2022-09-06T08:26:25.254Z,15.50
2022-09-06T08:28:57.668Z,15.50
2022-09-06T08:31:25.724Z,15.60
2022-09-06T08:33:54.067Z,15.80
2022-09-06T08:36:23.987Z,15.80
2022-09-06T08:38:51.978Z,16.00
2022-09-06T08:41:24.437Z,16.10
2022-09-06T08:46:43.903Z,16.20
2022-09-06T08:49:12.195Z,16.20
2022-09-06T08:51:59.031Z,16.30
2022-09-06T08:54:31.533Z,16.50
2022-09-06T08:57:14.009Z,16.40
2022-09-06T08:59:43.287Z,16.50
2022-09-06T09:02:12.697Z,16.60
2022-09-06T09:04:42.575Z,16.70
2022-09-06T09:07:18.548Z,16.70
2022-09-06T09:09:48.122Z,16.70
2022-09-06T09:12:18.991Z,16.70
2022-09-06T09:14:48.552Z,16.90
2022-09-06T09:17:20.413Z,17.00
2022-09-06T09:19:48.613Z,16.90
2022-09-06T09:22:19.043Z,16.80
2022-09-06T09:24:52.095Z,17.00
2022-09-06T09:27:22.407Z,16.80
2022-09-06T09:32:52.345Z,17.10
2022-09-06T09:35:22.345Z,17.20
2022-09-06T09:38:00.083Z,17.30
2022-09-06T09:40:35.354Z,17.60
2022-09-06T09:43:15.087Z,17.40
2022-09-06T09:45:45.758Z,17.60
2022-09-06T09:48:18.724Z,17.40
2022-09-06T09:50:49.082Z,17.70
2022-09-06T09:53:18.571Z,17.80
2022-09-06T09:55:48.319Z,17.80
2022-09-06T09:58:22.298Z,17.80
2022-09-06T10:00:51.411Z,18.00
2022-09-06T10:03:20.984Z,17.90
2022-09-06T10:06:02.187Z,18.10
2022-09-06T10:08:33.651Z,18.20
2022-09-06T10:11:03.071Z,18.20
2022-09-06T10:13:34.430Z,18.00
2022-09-06T10:16:03.454Z,18.10
2022-09-06T10:18:32.645Z,18.20
2022-09-06T10:21:02.236Z,18.50
2022-09-06T10:26:27.993Z,18.40
2022-09-06T10:28:57.131Z,18.70
2022-09-06T10:31:38.001Z,18.70
2022-09-06T10:34:12.083Z,18.90
2022-09-06T10:36:41.848Z,18.70
2022-09-06T10:39:18.606Z,18.70
2022-09-06T10:41:54.614Z,18.70
2022-09-06T10:44:31.827Z,18.60
2022-09-06T10:47:04.622Z,18.90
2022-09-06T10:49:33.194Z,18.70
2022-09-06T10:52:03.698Z,18.50
2022-09-06T10:54:33.494Z,18.60
2022-09-06T10:57:04.724Z,18.70
2022-09-06T11:02:14.155Z,18.80
2022-09-06T11:07:31.954Z,18.90
2022-09-06T11:10:02.015Z,18.90
2022-09-06T11:12:34.281Z,19.00
2022-09-06T11:15:03.208Z,19.10
2022-09-06T11:17:34.248Z,19.00
2022-09-06T11:20:05.363Z,19.40
2022-09-06T11:22:43.399Z,19.40
2022-09-06T11:25:29.883Z,19.40
2022-09-06T11:28:00.785Z,19.00
2022-09-06T11:30:29.928Z,18.60
2022-09-06T11:33:07.843Z,18.90
2022-09-06T11:35:36.305Z,19.00
2022-09-06T11:38:06.237Z,18.70
2022-09-06T11:40:41.714Z,19.00
2022-09-06T11:43:13.074Z,19.00
2022-09-06T11:45:42.555Z,18.90
2022-09-06T11:48:36.879Z,18.90
2022-09-06T11:51:10.932Z,18.70
2022-09-06T11:53:53.943Z,18.70
2022-09-06T11:56:29.589Z,19.30
2022-09-06T11:59:00.924Z,18.90
2022-09-06T12:01:37.131Z,18.90
2022-09-06T12:04:07.978Z,19.50
2022-09-06T12:06:39.939Z,20.10
2022-09-06T12:09:26.766Z,20.30
2022-09-06T12:11:56.635Z,20.60
2022-09-06T12:14:31.256Z,20.10
2022-09-06T12:17:26.243Z,20.30
2022-09-06T12:19:56.200Z,20.80
2022-09-06T12:22:43.087Z,20.90
2022-09-06T12:25:17.976Z,20.60
2022-09-06T12:27:54.108Z,21.20
2022-09-06T12:30:36.420Z,21.10
2022-09-06T12:33:07.300Z,21.40
2022-09-06T12:38:26.031Z,20.60
2022-09-06T12:40:59.212Z,20.30
2022-09-06T12:43:29.864Z,20.40
2022-09-06T12:46:00.640Z,20.80
2022-09-06T12:48:29.900Z,20.20
2022-09-06T12:51:05.612Z,20.80
2022-09-06T12:53:35.016Z,20.80
2022-09-06T12:56:04.133Z,20.70
2022-09-06T12:58:32.282Z,20.50
2022-09-06T13:01:06.079Z,20.80
2022-09-06T13:03:39.672Z,20.60
2022-09-06T13:06:08.170Z,20.60
2022-09-06T13:08:37.725Z,20.60
2022-09-06T13:11:07.104Z,20.50
2022-09-06T13:13:35.107Z,20.00
2022-09-06T13:16:04.822Z,20.60
2022-09-06T13:18:35.692Z,19.90
2022-09-06T13:21:05.083Z,20.40
2022-09-06T13:23:41.300Z,20.00
2022-09-06T13:26:09.786Z,20.30
2022-09-06T13:28:37.903Z,20.90
2022-09-06T13:31:09.836Z,21.20
2022-09-06T13:33:38.967Z,20.80
2022-09-06T13:36:08.986Z,20.80
2022-09-06T13:38:41.300Z,20.90
2022-09-06T13:41:32.603Z,20.60
2022-09-06T13:44:03.459Z,20.30
2022-09-06T13:46:33.573Z,20.50
2022-09-06T13:49:01.747Z,20.20
2022-09-06T13:51:30.139Z,19.90
2022-09-06T13:54:05.281Z,19.80
2022-09-06T13:56:33.324Z,20.30
2022-09-06T13:59:01.575Z,20.30
2022-09-06T14:01:29.747Z,20.00
2022-09-06T14:03:59.300Z,19.80
2022-09-06T14:06:27.350Z,18.60
2022-09-06T14:09:06.818Z,18.70
2022-09-06T14:11:36.033Z,19.40
2022-09-06T14:14:04.127Z,19.80
2022-09-06T14:16:32.611Z,18.90
2022-09-06T14:19:02.026Z,18.80
2022-09-06T14:21:30.280Z,18.80
2022-09-06T14:24:03.383Z,19.40
2022-09-06T14:26:33.222Z,19.20
2022-09-06T14:29:01.267Z,18.80
2022-09-06T14:31:29.808Z,19.30
2022-09-06T14:34:00.877Z,19.50
2022-09-06T14:36:33.370Z,19.90
2022-09-06T14:39:02.095Z,19.30
2022-09-06T14:41:30.213Z,19.80
2022-09-06T14:43:59.427Z,19.30
2022-09-06T14:46:28.395Z,18.70
2022-09-06T14:49:00.312Z,19.50
2022-09-06T14:51:28.823Z,18.70
2022-09-06T14:53:59.204Z,19.50
2022-09-06T14:56:27.458Z,19.60
2022-09-06T14:58:57.490Z,19.80
2022-09-06T15:01:31.987Z,19.40
2022-09-06T15:04:03.506Z,19.40
2022-09-06T15:06:32.704Z,18.70
2022-09-06T15:09:02.159Z,18.90
2022-09-06T15:11:31.259Z,18.90
2022-09-06T15:13:59.514Z,19.40
2022-09-06T15:16:27.644Z,19.10
2022-09-06T15:18:55.907Z,19.60
2022-09-06T15:21:25.551Z,19.60
2022-09-06T15:23:53.878Z,18.90
2022-09-06T15:26:23.408Z,18.30
2022-09-06T15:28:52.029Z,18.50
2022-09-06T15:31:20.224Z,18.50
2022-09-06T15:33:49.023Z,18.10
2022-09-06T15:36:17.223Z,18.20
2022-09-06T15:38:47.495Z,18.50
2022-09-06T15:41:16.381Z,18.30
2022-09-06T15:43:48.296Z,18.20
2022-09-06T15:46:16.920Z,18.40
2022-09-06T15:48:45.831Z,18.50
2022-09-06T15:51:15.066Z,18.60
2022-09-06T15:53:43.389Z,17.90
2022-09-06T15:56:12.565Z,18.30
2022-09-06T15:58:40.952Z,18.60
2022-09-06T16:01:11.358Z,18.10
2022-09-06T16:03:40.377Z,18.10
2022-09-06T16:08:53.846Z,18.30
2022-09-06T16:11:21.869Z,17.90
2022-09-06T16:13:49.921Z,18.10
2022-09-06T16:16:19.635Z,18.10
2022-09-06T16:18:48.730Z,17.60
2022-09-06T16:21:18.745Z,17.70
2022-09-06T16:23:49.743Z,17.60
2022-09-06T16:26:21.336Z,17.70
2022-09-06T16:28:52.956Z,18.30
2022-09-06T16:31:22.733Z,17.80
2022-09-06T16:33:51.427Z,17.50
2022-09-06T16:36:20.227Z,17.10
2022-09-06T16:38:48.312Z,17.20
2022-09-06T16:41:18.257Z,17.10
2022-09-06T16:43:47.125Z,17.00
2022-09-06T16:46:15.334Z,16.90
2022-09-06T16:48:51.245Z,17.10
2022-09-06T16:51:23.221Z,16.90
2022-09-06T16:53:52.226Z,16.90
2022-09-06T16:56:21.464Z,16.90
2022-09-06T16:58:51.811Z,16.90
2022-09-06T17:01:20.626Z,17.00
2022-09-06T17:03:50.652Z,16.80
2022-09-06T17:06:19.849Z,16.80
2022-09-06T17:08:48.184Z,16.50
2022-09-06T17:11:17.203Z,16.40
2022-09-06T17:13:46.089Z,16.40
2022-09-06T17:16:32.416Z,16.00
2022-09-06T17:19:02.673Z,15.90
2022-09-06T17:21:31.076Z,15.80
2022-09-06T17:24:04.045Z,16.20
2022-09-06T17:26:33.027Z,16.00
2022-09-06T17:29:01.049Z,15.90
2022-09-06T17:31:29.712Z,15.40
2022-09-06T17:34:00.642Z,15.60
2022-09-06T17:36:31.192Z,15.50
2022-09-06T17:39:02.726Z,15.60
2022-09-06T17:41:33.838Z,15.50
2022-09-06T17:44:01.912Z,14.90
2022-09-06T17:46:30.280Z,15.30
2022-09-06T17:48:58.934Z,15.50
2022-09-06T17:51:27.271Z,15.70
2022-09-06T17:53:57.168Z,15.60
2022-09-06T17:56:25.336Z,15.50
2022-09-06T17:58:54.925Z,15.00
2022-09-06T18:01:24.274Z,14.80
2022-09-06T18:03:52.902Z,14.80
2022-09-06T18:06:22.951Z,15.00
2022-09-06T18:08:51.767Z,14.80
2022-09-06T18:11:24.853Z,14.90
2022-09-06T18:13:56.400Z,14.80
2022-09-06T18:16:24.984Z,14.70
2022-09-06T18:18:53.956Z,14.70
2022-09-06T18:21:22.483Z,14.60
2022-09-06T18:23:53.545Z,14.50
2022-09-06T18:26:23.772Z,14.40
2022-09-06T18:28:53.214Z,14.40
2022-09-06T18:31:22.689Z,14.30
2022-09-06T18:33:51.874Z,14.30
2022-09-06T18:36:31.193Z,14.20
2022-09-06T18:39:03.039Z,14.00
2022-09-06T18:41:51.347Z,14.00
2022-09-06T18:44:21.385Z,14.10
2022-09-06T18:46:51.022Z,13.90
2022-09-06T18:49:23.508Z,13.90
2022-09-06T18:51:53.593Z,13.90
2022-09-06T18:54:23.504Z,13.90
2022-09-06T18:56:55.145Z,13.90
2022-09-06T18:59:27.849Z,13.90
2022-09-06T19:01:59.423Z,13.80
2022-09-06T19:04:32.059Z,13.70
2022-09-06T19:07:05.877Z,13.70
2022-09-06T19:09:37.779Z,13.90
2022-09-06T19:12:13.770Z,13.70
2022-09-06T19:14:45.419Z,13.80
2022-09-06T19:17:19.461Z,13.70
2022-09-06T19:19:55.532Z,13.60
2022-09-06T19:22:27.661Z,13.60
2022-09-06T19:25:03.071Z,13.40
2022-09-06T19:27:38.546Z,13.40
2022-09-06T19:30:14.340Z,13.40
2022-09-06T19:32:47.667Z,13.40
2022-09-06T19:35:22.958Z,13.40
2022-09-06T19:37:55.003Z,13.20
2022-09-06T19:40:27.150Z,13.40
2022-09-06T19:43:01.818Z,13.40
2022-09-06T19:45:33.648Z,13.40
2022-09-06T19:48:04.296Z,13.20
2022-09-06T19:50:36.223Z,13.30
2022-09-06T19:53:07.470Z,13.20
2022-09-06T19:55:38.852Z,13.10
2022-09-06T19:58:10.644Z,13.10
2022-09-06T20:00:43.329Z,13.20
2022-09-06T20:03:12.238Z,13.20
2022-09-06T20:05:41.243Z,13.20
2022-09-06T20:08:13.666Z,13.10
2022-09-06T20:10:52.840Z,13.10
2022-09-06T20:13:22.731Z,13.20
2022-09-06T20:15:51.373Z,13.10
2022-09-06T20:18:20.647Z,13.00
2022-09-06T20:20:50.104Z,13.00
2022-09-06T20:23:18.252Z,13.00
2022-09-06T20:25:46.298Z,13.00
2022-09-06T20:28:14.963Z,12.90
2022-09-06T20:30:47.247Z,12.90
2022-09-06T20:33:16.286Z,12.90
2022-09-06T20:35:45.176Z,13.00
2022-09-06T20:38:13.519Z,13.00
2022-09-06T20:40:41.706Z,13.00
2022-09-06T20:43:09.717Z,12.90
2022-09-06T20:45:38.451Z,12.90
2022-09-06T20:48:11.019Z,12.90
2022-09-06T20:50:39.076Z,12.80
2022-09-06T20:53:07.133Z,12.80
2022-09-06T20:55:35.253Z,12.80
2022-09-06T20:58:03.382Z,12.80
2022-09-06T21:00:31.606Z,12.80
2022-09-06T21:02:59.679Z,12.90
2022-09-06T21:05:29.456Z,12.70
2022-09-06T21:07:57.495Z,12.60
2022-09-06T21:10:25.509Z,12.70
2022-09-06T21:12:53.596Z,12.70
2022-09-06T21:15:21.717Z,12.60
2022-09-06T21:17:49.902Z,12.60
2022-09-06T21:20:18.098Z,12.50
2022-09-06T21:22:47.748Z,12.50
2022-09-06T21:25:15.886Z,12.50
2022-09-06T21:27:44.285Z,12.50
2022-09-06T21:30:13.200Z,12.50
2022-09-06T21:32:44.298Z,12.50
2022-09-06T21:35:12.488Z,12.40
2022-09-06T21:37:40.545Z,12.50
2022-09-06T21:40:11.125Z,12.40
2022-09-06T21:42:39.181Z,12.40
2022-09-06T21:45:07.650Z,12.40
2022-09-06T21:47:38.943Z,12.40
2022-09-06T21:50:07.228Z,12.20
2022-09-06T21:52:35.306Z,12.30
2022-09-06T21:55:03.363Z,12.30
2022-09-06T21:57:32.973Z,12.40
2022-09-06T22:00:00.974Z,12.30
2022-09-06T22:02:29.192Z,12.30
2022-09-06T22:04:57.247Z,12.20
2022-09-06T22:07:25.634Z,12.30
2022-09-06T22:09:54.089Z,12.40
2022-09-06T22:12:22.217Z,12.20
2022-09-06T22:14:51.655Z,12.10
2022-09-06T22:17:19.934Z,12.20
2022-09-06T22:19:47.951Z,12.30
2022-09-06T22:22:16.187Z,12.20
2022-09-06T22:24:44.355Z,12.10
2022-09-06T22:27:12.755Z,12.10
2022-09-06T22:29:40.763Z,12.10
2022-09-06T22:32:10.760Z,12.10
2022-09-06T22:34:38.889Z,12.20
2022-09-06T22:37:06.940Z,12.70
2022-09-06T22:39:35.306Z,12.00
2022-09-06T22:42:03.338Z,12.10
2022-09-06T22:44:31.539Z,12.10
2022-09-06T22:46:59.636Z,12.10
2022-09-06T22:49:29.332Z,12.10
2022-09-06T22:52:00.419Z,12.10
2022-09-06T22:54:29.026Z,12.10
2022-09-06T22:56:57.041Z,12.10
2022-09-06T22:59:25.232Z,12.20
2022-09-06T23:01:56.322Z,12.10
2022-09-06T23:04:24.318Z,12.00
2022-09-06T23:06:53.946Z,12.00
2022-09-06T23:09:21.996Z,12.10
2022-09-06T23:11:50.044Z,12.10
2022-09-06T23:14:18.354Z,12.10
2022-09-06T23:16:46.411Z,12.10
2022-09-06T23:19:14.588Z,12.10
2022-09-06T23:21:42.609Z,12.20
2022-09-06T23:24:12.177Z,12.20
2022-09-06T23:26:40.176Z,12.20
2022-09-06T23:29:13.031Z,12.20
2022-09-06T23:31:42.636Z,12.20
2022-09-06T23:34:10.909Z,12.20
2022-09-06T23:36:42.055Z,12.10
2022-09-06T23:39:10.225Z,12.10
2022-09-06T23:41:47.166Z,12.10
2022-09-06T23:44:15.376Z,12.10
2022-09-06T23:46:43.411Z,12.10
2022-09-06T23:49:11.634Z,12.20
2022-09-06T23:51:39.699Z,12.20
2022-09-06T23:54:10.895Z,12.20
2022-09-06T23:56:40.396Z,12.20
2022-09-06T23:59:08.613Z,12.20
